Time;durP1;ratioP1;P1;durP2;ratioP2;P2;SDS_P1;SDS_P2;PMS_P1;PMS_P2;Temp;Humidity;BMP_temperature;BMP_pressure;BME280_temperature;BME280_humidity;BME280_pressure;Samples;Min_cycle;Max_cycle;Signal;HPM_P1;HPM_P2
2021/10/06 00:00:04;;;;;;;2.90;1.33;;;;;;;13.92;69.07;96973.44;5010662;28;20037;-81
2021/10/06 00:02:30;;;;;;;3.60;1.40;;;;;;;14.00;68.35;96986.75;4990015;28;20120;-81
2021/10/06 00:04:55;;;;;;;3.58;1.63;;;;;;;14.07;67.70;96985.66;4995003;28;20596;-81
2021/10/06 00:07:20;;;;;;;4.30;1.77;;;;;;;13.90;68.69;96986.81;4975275;28;20087;-82
2021/10/06 00:09:46;;;;;;;3.20;1.70;;;;;;;13.92;68.51;96991.78;4994071;28;20072;-80
2021/10/06 00:12:11;;;;;;;4.45;1.45;;;;;;;13.86;68.54;96993.59;5010699;28;21609;-80
2021/10/06 00:14:36;;;;;;;5.82;2.17;;;;;;;13.92;68.35;96989.94;5010796;28;20091;-81
2021/10/06 00:17:02;;;;;;;2.60;1.30;;;;;;;14.01;67.91;97009.25;4993669;28;20025;-82
2021/10/06 00:19:28;;;;;;;2.28;1.45;;;;;;;13.95;68.24;97012.94;4995921;28;20040;-81
2021/10/06 00:21:53;;;;;;;2.22;1.52;;;;;;;13.97;68.15;97008.22;4996140;28;20113;-81
2021/10/06 00:24:19;;;;;;;2.92;1.58;;;;;;;13.77;68.23;97013.56;5012421;28;20084;-82
2021/10/06 00:26:44;;;;;;;2.97;1.30;;;;;;;13.79;68.12;97006.97;4996053;28;20018;-81
2021/10/06 00:29:09;;;;;;;4.32;1.55;;;;;;;13.65;68.57;97014.63;4995574;28;20030;-84
2021/10/06 00:31:35;;;;;;;2.50;1.42;;;;;;;13.75;68.47;97021.66;4979477;28;20045;-81
2021/10/06 00:34:00;;;;;;;2.60;1.63;;;;;;;13.76;68.40;97018.00;4995095;28;20053;-80
2021/10/06 00:36:26;;;;;;;4.47;1.58;;;;;;;13.89;68.06;97021.09;5013083;28;20034;-81
2021/10/06 00:38:51;;;;;;;3.08;1.33;;;;;;;13.92;67.47;97021.34;5003104;28;20108;-81
2021/10/06 00:41:17;;;;;;;3.38;1.60;;;;;;;13.80;67.89;97023.50;5006877;28;20053;-82
2021/10/06 00:43:42;;;;;;;2.58;1.20;;;;;;;13.82;67.58;97024.78;5011872;28;20128;-81
2021/10/06 00:46:07;;;;;;;4.53;1.70;;;;;;;13.77;67.44;97024.03;5011618;28;20037;-80
2021/10/06 00:48:33;;;;;;;2.33;1.42;;;;;;;13.67;68.27;97025.63;5011520;28;20113;-81
2021/10/06 00:50:58;;;;;;;3.67;1.27;;;;;;;13.62;67.88;97023.03;4995351;28;20532;-80
2021/10/06 00:53:25;;;;;;;5.75;1.25;;;;;;;13.48;68.09;97029.88;4997443;28;20044;-80
2021/10/06 00:55:51;;;;;;;4.03;1.15;;;;;;;13.63;67.91;97032.44;4978978;28;20042;-80
2021/10/06 00:58:17;;;;;;;4.72;2.00;;;;;;;13.71;67.38;97043.41;5011210;28;20050;-81
2021/10/06 01:00:42;;;;;;;5.38;1.33;;;;;;;13.68;67.47;97042.88;4995803;28;20098;-82
2021/10/06 01:03:07;;;;;;;6.90;1.73;;;;;;;13.71;67.58;97046.00;4996272;28;20061;-81
2021/10/06 01:05:33;;;;;;;2.97;1.25;;;;;;;13.65;67.98;97046.03;5011925;28;20026;-81
2021/10/06 01:07:59;;;;;;;2.95;1.52;;;;;;;13.42;68.49;97049.25;4995248;28;20034;-81
2021/10/06 01:10:24;;;;;;;5.25;1.35;;;;;;;13.65;67.87;97051.25;5011386;28;20026;-81
2021/10/06 01:12:50;;;;;;;6.15;1.77;;;;;;;13.74;67.13;97054.09;5012080;28;20061;-82
2021/10/06 01:15:15;;;;;;;6.38;1.55;;;;;;;13.78;67.30;97049.16;4995756;28;20036;-81
2021/10/06 01:17:41;;;;;;;5.43;1.35;;;;;;;13.67;67.60;97053.63;4994825;28;20080;-81
2021/10/06 01:20:08;;;;;;;3.88;1.45;;;;;;;13.36;68.31;97056.31;5011839;28;20077;-81
2021/10/06 01:22:33;;;;;;;2.83;1.45;;;;;;;13.58;66.67;97063.06;4979391;28;20048;-81
2021/10/06 01:25:00;;;;;;;5.45;1.42;;;;;;;13.64;67.20;97068.03;4995215;28;20113;-82
2021/10/06 01:27:26;;;;;;;2.20;1.25;;;;;;;13.64;66.61;97052.31;5011204;28;20505;-81
2021/10/06 01:29:51;;;;;;;1.45;1.10;;;;;;;13.59;67.24;97054.97;4979308;28;20018;-81
2021/10/06 01:32:17;;;;;;;4.15;1.42;;;;;;;13.59;66.30;97057.56;4994957;28;20045;-81
2021/10/06 01:34:44;;;;;;;3.10;1.10;;;;;;;13.44;67.87;97052.38;4979219;28;20037;-83
2021/10/06 01:37:09;;;;;;;2.05;1.10;;;;;;;13.46;67.44;97056.28;4991624;28;20026;-81
2021/10/06 01:39:35;;;;;;;4.82;1.20;;;;;;;13.53;67.66;97056.00;4992044;28;20092;-82
2021/10/06 01:42:01;;;;;;;3.17;1.20;;;;;;;13.34;67.47;97052.41;5006015;28;20068;-81
2021/10/06 01:44:27;;;;;;;3.88;1.10;;;;;;;13.49;67.20;97049.75;4995260;28;20032;-82
2021/10/06 01:46:52;;;;;;;2.65;1.35;;;;;;;13.45;67.75;97053.94;5011231;28;20381;-81
2021/10/06 01:49:18;;;;;;;3.80;1.40;;;;;;;13.43;67.71;97061.28;4995126;28;20057;-81
2021/10/06 01:51:44;;;;;;;6.15;1.27;;;;;;;13.34;68.22;97062.88;4994459;28;20509;-81
2021/10/06 01:54:10;;;;;;;5.15;1.75;;;;;;;13.43;68.00;97061.28;4994698;28;20033;-81
2021/10/06 01:56:35;;;;;;;3.30;2.20;;;;;;;13.43;67.37;97056.03;4991399;28;20030;-82
2021/10/06 01:59:01;;;;;;;3.00;1.60;;;;;;;13.19;68.44;97048.72;4990702;28;20045;-80
2021/10/06 02:01:27;;;;;;;7.97;2.53;;;;;;;13.29;68.27;97059.16;4991286;28;20030;-82
2021/10/06 02:03:52;;;;;;;4.93;1.85;;;;;;;13.36;67.89;97060.75;4978213;28;20044;-82
2021/10/06 02:06:18;;;;;;;2.47;2.08;;;;;;;13.30;67.79;97059.97;4994092;28;20034;-82
2021/10/06 02:08:43;;;;;;;9.27;2.25;;;;;;;13.27;67.59;97057.88;4996484;28;20165;-82
2021/10/06 02:11:08;;;;;;;3.95;2.00;;;;;;;13.26;67.65;97058.91;5010777;28;20084;-81
2021/10/06 02:13:34;;;;;;;4.40;2.08;;;;;;;13.21;68.20;97067.56;5010355;28;20084;-81
2021/10/06 02:15:59;;;;;;;3.58;2.13;;;;;;;13.26;68.02;97064.94;4994365;28;20663;-82
2021/10/06 02:18:25;;;;;;;5.00;2.15;;;;;;;13.11;69.25;97072.81;5010166;28;20034;-81
2021/10/06 02:20:50;;;;;;;3.58;1.90;;;;;;;13.33;68.11;97074.38;5010179;28;20041;-82
2021/10/06 02:23:16;;;;;;;3.80;2.00;;;;;;;13.35;68.17;97067.84;4994088;28;20025;-82
2021/10/06 02:25:41;;;;;;;4.35;2.03;;;;;;;13.35;68.08;97073.06;5009956;28;20064;-81
2021/10/06 02:28:07;;;;;;;6.10;2.03;;;;;;;13.45;68.39;97072.25;5010051;28;20584;-81
2021/10/06 02:30:34;;;;;;;5.82;2.15;;;;;;;13.39;68.29;97075.94;4994100;28;20076;-81
2021/10/06 02:32:59;;;;;;;3.28;2.05;;;;;;;13.38;67.75;97064.66;4978141;28;20120;-82
2021/10/06 02:35:24;;;;;;;5.65;2.33;;;;;;;13.39;68.31;97071.47;4994242;28;20460;-81
2021/10/06 02:37:50;;;;;;;5.95;2.78;;;;;;;13.42;68.33;97063.09;4993864;28;20030;-81
2021/10/06 02:40:17;;;;;;;5.95;3.03;;;;;;;13.32;67.70;97067.59;5010199;28;20378;-81
2021/10/06 02:42:43;;;;;;;4.45;2.40;;;;;;;13.50;67.67;97067.00;4977785;28;20076;-81
2021/10/06 02:45:10;;;;;;;4.63;2.70;;;;;;;13.48;67.97;97071.72;4977486;28;20037;-82
2021/10/06 02:47:36;;;;;;;3.90;2.30;;;;;;;13.55;67.71;97079.28;4977187;28;20034;-81
2021/10/06 02:50:03;;;;;;;4.28;2.63;;;;;;;13.52;67.77;97066.75;5010161;28;20044;-81
2021/10/06 02:52:28;;;;;;;3.88;2.20;;;;;;;13.61;67.85;97071.16;5010133;28;20717;-81
2021/10/06 02:54:54;;;;;;;4.47;2.47;;;;;;;13.52;68.02;97069.34;5009940;28;20037;-83
2021/10/06 02:57:19;;;;;;;4.85;2.33;;;;;;;13.61;67.65;97073.78;4979835;28;20034;-81
2021/10/06 02:59:44;;;;;;;4.60;2.75;;;;;;;13.59;67.59;97070.66;4990572;28;20034;-82
2021/10/06 03:02:10;;;;;;;5.95;2.78;;;;;;;13.44;68.23;97065.47;4974311;28;20033;-82
2021/10/06 03:04:35;;;;;;;6.05;3.00;;;;;;;13.43;68.71;97071.72;4974358;28;20034;-81
2021/10/06 03:07:00;;;;;;;5.82;3.20;;;;;;;13.58;67.53;97070.91;4990473;28;20125;-81
2021/10/06 03:09:26;;;;;;;7.18;3.05;;;;;;;13.49;68.21;97060.22;4990200;28;20042;-80
2021/10/06 03:11:51;;;;;;;5.25;2.50;;;;;;;13.56;67.68;97065.94;4993906;28;20041;-83
2021/10/06 03:14:17;;;;;;;6.22;2.72;;;;;;;13.53;67.50;97061.25;5010150;28;20038;-81
2021/10/06 03:16:42;;;;;;;7.10;3.72;;;;;;;13.58;67.73;97063.84;4993418;28;20536;-81
2021/10/06 03:19:08;;;;;;;6.90;3.42;;;;;;;13.56;67.74;97067.78;5010028;28;20046;-82
2021/10/06 03:21:33;;;;;;;5.55;2.85;;;;;;;13.43;67.96;97063.88;4977999;28;20057;-81
2021/10/06 03:23:58;;;;;;;8.15;3.85;;;;;;;13.60;67.74;97071.44;4993680;28;20038;-82
2021/10/06 03:26:24;;;;;;;6.45;2.88;;;;;;;13.47;67.97;97073.56;4993343;28;20038;-82
2021/10/06 03:28:49;;;;;;;7.43;3.33;;;;;;;13.60;67.55;97064.34;4993254;28;20065;-81
2021/10/06 03:31:15;;;;;;;8.05;3.40;;;;;;;13.48;68.13;97079.56;4976867;28;20025;-82
2021/10/06 03:33:40;;;;;;;8.40;3.58;;;;;;;13.63;68.10;97076.91;4995163;28;20445;-83
2021/10/06 03:36:06;;;;;;;5.88;3.05;;;;;;;13.70;67.41;97087.09;4997457;28;20036;-83
2021/10/06 03:38:31;;;;;;;5.63;3.50;;;;;;;13.58;67.95;97097.84;5013239;28;20034;-82
2021/10/06 03:40:57;;;;;;;7.50;3.40;;;;;;;13.58;67.70;97089.22;5013424;28;20486;-82
2021/10/06 03:43:22;;;;;;;7.85;3.63;;;;;;;13.51;67.99;97094.72;4997067;28;20119;-81
2021/10/06 03:45:48;;;;;;;7.28;3.85;;;;;;;13.59;67.51;97104.66;4980850;28;20037;-81
2021/10/06 03:48:13;;;;;;;7.22;3.20;;;;;;;13.56;68.23;97112.25;4966298;28;20066;-81
2021/10/06 03:50:38;;;;;;;4.95;3.00;;;;;;;13.50;68.07;97103.63;4977774;28;20050;-82
2021/10/06 03:53:04;;;;;;;6.95;3.35;;;;;;;13.60;67.91;97111.44;5009904;28;20042;-81
2021/10/06 03:55:30;;;;;;;3.83;2.55;;;;;;;13.48;67.71;97116.19;4977327;28;20041;-80
2021/10/06 03:57:55;;;;;;;3.85;2.40;;;;;;;13.39;67.82;97115.94;4976917;28;20709;-82
2021/10/06 04:00:21;;;;;;;4.65;2.58;;;;;;;13.41;68.20;97126.91;4977202;28;20137;-81
2021/10/06 04:02:46;;;;;;;7.90;2.78;;;;;;;13.24;69.21;97126.38;4977387;28;20018;-81
2021/10/06 04:05:11;;;;;;;5.57;2.83;;;;;;;13.33;68.94;97124.03;4977027;28;20030;-81
2021/10/06 04:07:37;;;;;;;6.45;3.17;;;;;;;13.38;67.85;97126.66;4977412;28;20588;-81
2021/10/06 04:10:04;;;;;;;3.47;2.45;;;;;;;13.32;68.12;97130.34;4979830;28;20034;-81
2021/10/06 04:12:29;;;;;;;4.85;2.17;;;;;;;13.46;67.65;97131.38;4995628;28;20079;-81
2021/10/06 04:14:54;;;;;;;5.80;2.92;;;;;;;13.55;67.67;97132.38;4996538;28;20390;-81
2021/10/06 04:17:20;;;;;;;5.90;2.80;;;;;;;13.48;67.94;97134.50;4979548;28;20033;-81
2021/10/06 04:19:45;;;;;;;4.20;2.50;;;;;;;13.64;67.07;97137.88;4996719;28;20046;-82
2021/10/06 04:22:11;;;;;;;6.68;2.42;;;;;;;13.64;67.33;97141.28;5014066;28;20036;-82
2021/10/06 04:24:36;;;;;;;5.72;2.90;;;;;;;13.59;67.44;97143.91;5012418;28;20638;-80
2021/10/06 04:27:02;;;;;;;6.38;2.50;;;;;;;13.52;67.99;97148.63;4979334;28;20030;-81
2021/10/06 04:29:27;;;;;;;6.38;2.85;;;;;;;13.32;68.39;97135.56;4979990;28;20466;-82
2021/10/06 04:31:52;;;;;;;4.10;2.42;;;;;;;13.52;67.56;97147.81;4979879;28;20026;-81
2021/10/06 04:34:18;;;;;;;10.40;3.13;;;;;;;13.14;68.85;97134.22;4999445;28;20797;-82
2021/10/06 04:36:43;;;;;;;4.95;2.30;;;;;;;12.85;70.24;97132.09;5031948;28;20106;-81
2021/10/06 04:39:09;;;;;;;4.82;2.30;;;;;;;13.25;68.53;97138.41;5015254;28;20025;-79
2021/10/06 04:41:35;;;;;;;3.58;2.25;;;;;;;13.37;68.19;97140.78;5019356;28;20117;-82
2021/10/06 04:44:02;;;;;;;11.18;2.92;;;;;;;13.24;68.31;97135.00;4992203;28;20038;-81
2021/10/06 04:46:28;;;;;;;6.40;2.95;;;;;;;13.31;67.65;97137.34;4976897;28;20104;-81
2021/10/06 04:48:53;;;;;;;4.85;2.53;;;;;;;13.34;67.81;97139.47;4992184;28;20109;-82
2021/10/06 04:51:19;;;;;;;6.05;2.85;;;;;;;13.02;68.95;97144.94;4992625;28;20097;-82
2021/10/06 04:53:44;;;;;;;5.72;2.58;;;;;;;13.01;68.60;97144.16;4992718;28;20042;-83
2021/10/06 04:56:09;;;;;;;5.75;2.42;;;;;;;13.23;67.02;97140.50;4998055;28;20029;-81
2021/10/06 04:58:35;;;;;;;5.82;2.63;;;;;;;13.30;67.24;97147.03;4994854;28;20101;-80
2021/10/06 05:01:00;;;;;;;3.75;2.15;;;;;;;13.26;67.54;97143.38;4994593;28;20057;-81
2021/10/06 05:03:26;;;;;;;4.57;2.10;;;;;;;13.13;68.08;97154.34;4993752;28;20091;-81
2021/10/06 05:05:51;;;;;;;4.90;2.22;;;;;;;13.20;67.59;97151.50;4994778;28;20084;-80
2021/10/06 05:08:17;;;;;;;3.90;2.40;;;;;;;13.25;67.45;97147.03;4994140;28;20037;-82
2021/10/06 05:10:42;;;;;;;3.17;2.13;;;;;;;13.27;67.29;97155.41;4995150;28;20120;-81
2021/10/06 05:13:07;;;;;;;7.03;2.25;;;;;;;13.41;66.70;97163.53;4994864;28;20449;-83
2021/10/06 05:15:33;;;;;;;6.03;2.10;;;;;;;13.39;67.18;97162.22;4978580;28;20049;-82
2021/10/06 05:17:58;;;;;;;6.47;3.03;;;;;;;13.35;66.96;97159.38;5011282;28;20109;-82
2021/10/06 05:20:23;;;;;;;5.32;2.33;;;;;;;13.32;67.33;97165.13;4978471;28;20038;-82
2021/10/06 05:22:49;;;;;;;5.97;2.13;;;;;;;13.22;67.37;97168.47;5010226;28;20038;-82
2021/10/06 05:25:15;;;;;;;6.53;2.17;;;;;;;13.18;67.89;97169.25;4994600;28;20029;-81
2021/10/06 05:27:40;;;;;;;3.58;2.33;;;;;;;13.04;68.04;97174.19;5010833;28;20359;-81
2021/10/06 05:30:07;;;;;;;3.50;1.80;;;;;;;13.08;67.80;97170.03;5010822;28;20473;-81
2021/10/06 05:32:33;;;;;;;5.40;1.73;;;;;;;13.25;66.93;97186.25;4990499;28;20034;-80
2021/10/06 05:34:59;;;;;;;6.15;2.10;;;;;;;13.21;67.43;97176.56;5011854;28;20076;-81
2021/10/06 05:37:27;;;;;;;6.82;2.30;;;;;;;13.21;67.08;97187.84;5010814;28;20668;-81
2021/10/06 05:39:52;;;;;;;4.85;2.30;;;;;;;13.13;67.86;97193.56;5011153;28;20083;-81
2021/10/06 05:42:17;;;;;;;5.50;2.00;;;;;;;13.24;66.54;97189.91;5011454;28;20113;-82
2021/10/06 05:44:43;;;;;;;8.82;2.42;;;;;;;13.13;67.25;97200.63;4978500;28;20033;-81
2021/10/06 05:47:08;;;;;;;3.28;1.83;;;;;;;12.98;67.45;97196.16;4975050;28;20042;-81
2021/10/06 05:49:34;;;;;;;4.63;2.40;;;;;;;13.09;66.51;97200.34;4975376;28;20022;-82
2021/10/06 05:51:59;;;;;;;4.10;1.83;;;;;;;13.26;65.96;97211.38;4993784;28;20493;-81
2021/10/06 05:54:24;;;;;;;7.78;2.10;;;;;;;13.17;66.05;97210.28;4994648;28;20084;-81
2021/10/06 05:56:50;;;;;;;6.78;2.35;;;;;;;13.15;65.85;97217.63;5000147;28;20108;-82
2021/10/06 05:59:15;;;;;;;9.02;2.92;;;;;;;13.15;66.52;97204.56;4998286;28;20037;-81
2021/10/06 06:01:41;;;;;;;4.70;2.22;;;;;;;13.21;66.10;97206.13;5011679;28;20030;-83
2021/10/06 06:04:06;;;;;;;4.95;1.92;;;;;;;13.07;66.92;97202.44;5011013;28;20038;-81
2021/10/06 06:06:31;;;;;;;7.68;2.60;;;;;;;13.14;66.96;97197.75;4991274;28;20033;-81
2021/10/06 06:08:57;;;;;;;4.57;2.00;;;;;;;13.08;67.05;97207.41;5003295;28;20036;-82
2021/10/06 06:11:22;;;;;;;2.20;1.50;;;;;;;13.15;66.36;97212.38;4994389;28;20061;-82
2021/10/06 06:13:51;;;;;;;3.15;1.33;;;;;;;12.80;67.56;97216.50;4994244;28;20033;-82
2021/10/06 06:16:16;;;;;;;5.43;1.42;;;;;;;13.09;66.79;97213.41;4998356;28;20077;-81
2021/10/06 06:18:42;;;;;;;4.47;1.60;;;;;;;13.10;66.65;97217.63;4991932;28;20046;-81
2021/10/06 06:21:07;;;;;;;6.25;1.50;;;;;;;13.12;67.19;97215.53;4975021;28;20387;-82
2021/10/06 06:23:33;;;;;;;2.60;1.30;;;;;;;13.25;66.88;97217.63;4973167;28;20026;-82
2021/10/06 06:25:59;;;;;;;3.95;1.58;;;;;;;13.32;66.19;97227.09;4994911;28;20066;-82
2021/10/06 06:28:24;;;;;;;2.90;1.70;;;;;;;13.20;67.51;97225.47;4977664;28;20040;-82
2021/10/06 06:30:50;;;;;;;4.18;1.63;;;;;;;13.19;67.30;97236.97;4994227;28;20541;-81
2021/10/06 06:33:15;;;;;;;5.22;1.83;;;;;;;13.09;67.71;97235.13;4994498;28;20030;-82
2021/10/06 06:35:41;;;;;;;3.47;1.20;;;;;;;13.14;67.23;97230.94;4994475;28;20080;-82
2021/10/06 06:38:06;;;;;;;4.53;2.03;;;;;;;13.32;67.04;97250.63;5010083;28;20030;-81
2021/10/06 06:40:31;;;;;;;5.93;1.50;;;;;;;13.05;67.52;97251.59;5010717;28;20033;-81
2021/10/06 06:42:57;;;;;;;2.03;1.40;;;;;;;13.20;66.91;97250.84;4994003;28;20230;-83
2021/10/06 06:45:23;;;;;;;3.22;1.40;;;;;;;13.08;67.62;97253.69;5010419;28;20038;-81
2021/10/06 06:47:48;;;;;;;3.17;1.92;;;;;;;13.07;67.91;97270.41;5010595;28;20053;-82
2021/10/06 06:50:18;;;;;;;5.05;1.55;;;;;;;13.21;67.77;97271.50;4993524;28;20029;-81
2021/10/06 06:52:44;;;;;;;4.38;1.40;;;;;;;13.26;67.55;97271.50;5007261;28;20038;-82
2021/10/06 06:55:09;;;;;;;5.53;1.50;;;;;;;13.21;66.96;97268.09;4977507;28;20032;-82
2021/10/06 06:57:34;;;;;;;4.38;1.42;;;;;;;13.15;67.17;97279.59;4993722;28;20528;-82
2021/10/06 07:00:00;;;;;;;5.55;1.40;;;;;;;12.91;68.29;97287.88;4993958;28;20104;-81
2021/10/06 07:02:25;;;;;;;4.15;1.83;;;;;;;13.16;67.35;97292.41;5010595;28;20109;-81
2021/10/06 07:04:51;;;;;;;4.88;1.55;;;;;;;13.20;67.51;97287.44;4987046;28;20068;-81
2021/10/06 07:07:16;;;;;;;5.13;1.40;;;;;;;13.26;66.97;97294.25;4990803;28;20088;-81
2021/10/06 07:09:49;;;;;;;6.32;2.05;;;;;;;13.17;67.17;97288.72;5004102;28;20046;-81
2021/10/06 07:12:20;;;;;;;2.72;1.13;;;;;;;13.03;67.04;97292.88;4998601;28;20105;-82
2021/10/06 07:14:47;;;;;;;3.70;1.42;;;;;;;13.28;66.61;97289.53;4993145;28;20030;-82
2021/10/06 07:17:13;;;;;;;6.85;1.30;;;;;;;13.34;67.03;97290.38;5011165;28;20658;-82
2021/10/06 07:19:38;;;;;;;3.10;1.30;;;;;;;13.37;66.50;97295.09;4997517;28;20053;-82
2021/10/06 07:22:05;;;;;;;5.00;1.30;;;;;;;13.40;66.47;97297.16;4997175;28;20057;-82
2021/10/06 07:24:30;;;;;;;4.13;2.08;;;;;;;13.34;66.82;97298.22;4994177;28;20809;-81
2021/10/06 07:26:56;;;;;;;6.25;1.90;;;;;;;13.45;66.64;97297.97;4997476;28;20030;-83
2021/10/06 07:29:21;;;;;;;3.50;1.40;;;;;;;13.49;65.91;97306.09;4997239;28;20367;-81
2021/10/06 07:31:46;;;;;;;3.88;1.48;;;;;;;13.28;66.49;97307.84;5006464;28;20565;-82
2021/10/06 07:34:12;;;;;;;4.80;1.65;;;;;;;13.48;66.02;97314.97;5005105;28;20021;-82
2021/10/06 07:36:38;;;;;;;5.13;2.38;;;;;;;13.45;66.49;97325.94;4999681;28;20157;-82
2021/10/06 07:39:05;;;;;;;6.25;2.85;;;;;;;13.41;66.48;97332.75;4997496;28;20041;-83
2021/10/06 07:41:30;;;;;;;5.97;1.80;;;;;;;13.40;66.13;97328.56;4997634;28;20045;-81
2021/10/06 07:43:55;;;;;;;6.70;2.05;;;;;;;13.60;66.15;97336.44;4998241;28;20025;-81
2021/10/06 07:46:21;;;;;;;3.28;1.80;;;;;;;13.70;65.36;97342.75;5013658;28;20056;-81
2021/10/06 07:48:47;;;;;;;6.07;1.63;;;;;;;13.71;65.05;97349.53;4997124;28;20026;-82
2021/10/06 07:51:12;;;;;;;4.45;1.55;;;;;;;13.68;65.55;97337.78;4962498;28;20072;-82
2021/10/06 07:53:38;;;;;;;5.13;1.80;;;;;;;13.81;66.33;97337.28;4991543;28;20041;-82
2021/10/06 07:56:04;;;;;;;3.35;1.50;;;;;;;13.66;66.34;97338.03;4989501;28;20042;-81
2021/10/06 07:58:29;;;;;;;3.90;1.38;;;;;;;13.86;65.67;97342.50;4985002;28;20486;-83
2021/10/06 08:00:54;;;;;;;2.17;1.63;;;;;;;13.88;65.74;97349.28;4987707;28;20021;-83
2021/10/06 08:03:20;;;;;;;5.72;2.03;;;;;;;13.92;64.75;97340.66;5002980;28;20122;-83
2021/10/06 08:05:47;;;;;;;4.10;1.33;;;;;;;14.03;64.76;97341.44;4968976;28;20027;-82
2021/10/06 08:08:13;;;;;;;4.20;1.58;;;;;;;14.10;65.44;97351.66;5003331;28;20034;-82
2021/10/06 08:10:38;;;;;;;3.30;1.90;;;;;;;14.04;64.56;97348.25;5012410;28;20046;-82
2021/10/06 08:13:03;;;;;;;4.57;1.70;;;;;;;14.14;64.67;97352.72;5012678;28;20039;-82
2021/10/06 08:15:29;;;;;;;4.10;1.50;;;;;;;13.98;64.26;97365.81;4996446;28;20084;-82
2021/10/06 08:17:55;;;;;;;4.75;1.85;;;;;;;14.01;65.17;97375.75;5012463;28;20030;-83
2021/10/06 08:20:21;;;;;;;4.03;1.75;;;;;;;14.00;65.62;97368.13;5012129;28;20465;-82
2021/10/06 08:22:46;;;;;;;2.78;1.83;;;;;;;14.18;65.10;97374.72;5013651;28;20066;-81
2021/10/06 08:25:12;;;;;;;4.03;2.08;;;;;;;14.05;64.66;97382.03;5013411;28;20120;-82
2021/10/06 08:27:37;;;;;;;4.72;2.63;;;;;;;14.15;64.15;97378.63;4995719;28;20499;-82
2021/10/06 08:30:03;;;;;;;3.55;1.80;;;;;;;14.19;63.93;97381.53;5012923;28;20112;-82
2021/10/06 08:32:29;;;;;;;3.17;1.88;;;;;;;14.23;63.30;97391.19;4996621;28;20036;-81
2021/10/06 08:34:54;;;;;;;5.50;1.95;;;;;;;14.28;64.13;97390.41;4995694;28;20073;-82
2021/10/06 08:37:19;;;;;;;5.72;2.10;;;;;;;14.21;63.75;97392.53;4995317;28;20050;-81
2021/10/06 08:39:46;;;;;;;5.07;1.75;;;;;;;14.13;65.21;97391.19;5011568;28;20033;-82
2021/10/06 08:42:11;;;;;;;5.22;2.03;;;;;;;14.31;63.95;97391.72;5009429;28;20318;-82
2021/10/06 08:44:38;;;;;;;4.22;2.25;;;;;;;14.25;64.16;97388.31;4976907;28;20096;-82
2021/10/06 08:47:05;;;;;;;4.35;1.98;;;;;;;14.20;64.65;97383.84;4992230;28;20061;-82
2021/10/06 08:49:32;;;;;;;3.75;1.88;;;;;;;14.38;64.30;97379.16;4992409;28;20081;-83
2021/10/06 08:51:57;;;;;;;5.32;2.40;;;;;;;14.21;64.53;97387.28;5009450;28;20051;-81
2021/10/06 08:54:22;;;;;;;3.95;1.70;;;;;;;14.21;64.26;97382.03;4992808;28;20535;-82
2021/10/06 08:56:49;;;;;;;6.07;2.20;;;;;;;14.16;64.10;97371.56;5008732;28;20026;-82
2021/10/06 08:59:15;;;;;;;4.40;2.13;;;;;;;14.08;65.03;97375.47;4992625;28;20516;-82
2021/10/06 09:01:44;;;;;;;7.55;2.42;;;;;;;14.25;64.02;97375.22;5003604;28;20022;-82
2021/10/06 09:04:10;;;;;;;5.07;2.53;;;;;;;14.60;65.05;97377.06;5009840;28;20026;-82
2021/10/06 09:06:40;;;;;;;5.85;2.35;;;;;;;14.81;63.18;97378.84;5008878;28;20153;-82
2021/10/06 09:09:22;;;;;;;6.97;2.63;;;;;;;15.01;62.66;97378.78;4976753;28;20037;-82
2021/10/06 09:11:52;;;;;;;6.38;2.47;;;;;;;15.13;61.76;97366.16;5004254;28;20088;-81
2021/10/06 09:14:18;;;;;;;7.35;2.30;;;;;;;15.25;60.86;97371.09;4974245;28;20113;-82
2021/10/06 09:16:45;;;;;;;4.68;2.03;;;;;;;15.24;61.25;97376.59;4989287;28;20029;-81
2021/10/06 09:19:11;;;;;;;3.63;2.00;;;;;;;15.05;61.12;97379.81;4991945;28;20034;-81
2021/10/06 09:22:10;;;;;;;5.15;2.20;;;;;;;14.72;61.84;97392.50;4971958;28;20041;-82
2021/10/06 09:25:10;;;;;;;3.33;2.03;;;;;;;14.82;61.41;97385.66;4967939;28;20048;-82
2021/10/06 09:27:41;;;;;;;6.97;2.35;;;;;;;14.91;60.90;97386.69;4990498;28;20422;-82
2021/10/06 09:30:09;;;;;;;5.18;2.05;;;;;;;15.09;60.89;97393.19;5007899;28;20349;-82
2021/10/06 09:32:43;;;;;;;5.78;2.13;;;;;;;14.92;61.06;97389.03;4972764;28;20038;-82
2021/10/06 09:35:11;;;;;;;5.85;1.70;;;;;;;14.95;62.12;97404.22;4966979;28;20475;-82
2021/10/06 09:37:39;;;;;;;4.70;1.95;;;;;;;14.77;62.87;97397.72;5002487;28;20042;-82
2021/10/06 09:40:07;;;;;;;5.47;2.08;;;;;;;14.97;61.56;97402.13;5004508;28;20125;-82
2021/10/06 09:42:50;;;;;;;4.78;2.08;;;;;;;15.06;60.66;97398.94;4991836;28;20509;-82
2021/10/06 09:45:23;;;;;;;4.28;2.03;;;;;;;15.06;61.25;97399.75;4975659;28;20057;-82
2021/10/06 09:48:21;;;;;;;8.90;3.55;;;;;;;15.03;61.34;97402.91;5006682;28;20041;-82
2021/10/06 09:50:49;;;;;;;4.63;2.03;;;;;;;15.35;61.08;97397.28;4978262;28;20176;-82
2021/10/06 09:53:16;;;;;;;4.70;3.08;;;;;;;15.86;59.88;97393.59;4991133;28;20036;-82
2021/10/06 09:55:44;;;;;;;5.45;2.30;;;;;;;15.92;59.92;97402.25;5007993;28;20065;-82
2021/10/06 09:58:10;;;;;;;4.03;2.25;;;;;;;16.01;58.96;97405.84;5007455;28;20026;-82
2021/10/06 10:00:38;;;;;;;3.65;1.92;;;;;;;15.99;58.77;97402.72;5008093;28;20040;-82
2021/10/06 10:03:04;;;;;;;3.03;2.53;;;;;;;15.98;59.15;97416.91;4990862;28;20033;-82
2021/10/06 10:05:30;;;;;;;9.88;2.40;;;;;;;15.79;58.95;97414.13;5007728;28;20394;-82
2021/10/06 10:07:56;;;;;;;4.43;2.28;;;;;;;15.71;60.59;97414.66;4990654;28;20030;-81
2021/10/06 10:10:21;;;;;;;3.53;1.85;;;;;;;15.42;59.81;97414.56;4992844;28;20029;-82
2021/10/06 10:12:48;;;;;;;2.25;1.55;;;;;;;15.50;59.68;97414.78;5007914;28;20057;-82
2021/10/06 10:15:15;;;;;;;3.88;1.65;;;;;;;15.47;59.44;97415.34;4981799;28;20072;-82
2021/10/06 10:17:41;;;;;;;3.60;1.73;;;;;;;15.33;59.75;97422.19;4991232;28;20030;-82
2021/10/06 10:20:10;;;;;;;4.25;1.65;;;;;;;15.29;60.11;97426.44;4991879;28;20585;-82
2021/10/06 10:22:39;;;;;;;5.03;2.33;;;;;;;15.47;60.75;97422.41;4991378;28;20034;-82
2021/10/06 10:25:25;;;;;;;5.00;2.00;;;;;;;15.26;61.50;97432.19;4991002;28;20022;-83
2021/10/06 10:28:09;;;;;;;4.38;2.03;;;;;;;15.15;59.38;97444.56;4987126;28;20081;-83
2021/10/06 10:31:01;;;;;;;7.03;2.22;;;;;;;15.01;60.37;97439.09;4988025;28;20465;-82
2021/10/06 10:33:40;;;;;;;3.53;1.70;;;;;;;15.22;61.13;97445.06;4978597;28;20108;-81
2021/10/06 10:36:35;;;;;;;6.75;1.92;;;;;;;15.23;61.88;97440.59;5006586;28;20053;-82
2021/10/06 10:39:05;;;;;;;5.28;2.30;;;;;;;15.13;61.12;97431.72;5007422;28;20111;-82
2021/10/06 10:41:44;;;;;;;5.15;2.00;;;;;;;15.28;60.18;97436.13;4990421;28;20038;-82
2021/10/06 10:44:10;;;;;;;5.55;2.15;;;;;;;15.47;59.29;97425.84;4990361;28;20033;-82
2021/10/06 10:46:57;;;;;;;4.53;1.88;;;;;;;15.29;61.29;97434.28;5008265;28;20144;-81
2021/10/06 10:49:24;;;;;;;5.07;2.28;;;;;;;15.32;59.29;97439.00;5006539;28;20038;-82
2021/10/06 10:51:55;;;;;;;4.80;2.15;;;;;;;15.55;61.01;97422.63;4968075;28;20026;-81
2021/10/06 10:54:39;;;;;;;7.55;1.80;;;;;;;15.71;60.94;97420.72;5003178;28;20022;-81
2021/10/06 10:57:22;;;;;;;6.25;2.25;;;;;;;16.04;59.22;97425.50;4974301;28;20023;-80
2021/10/06 10:59:50;;;;;;;4.60;1.73;;;;;;;16.39;58.27;97427.09;4982909;28;20030;-82
2021/10/06 11:02:20;;;;;;;5.80;1.75;;;;;;;16.28;58.35;97412.50;4981305;28;20478;-81
2021/10/06 11:04:54;;;;;;;5.82;1.85;;;;;;;16.15;58.04;97424.41;4966634;28;20450;-82
2021/10/06 11:07:21;;;;;;;2.88;2.35;;;;;;;16.19;58.68;97419.38;4997754;28;20042;-81
2021/10/06 11:09:59;;;;;;;4.93;2.45;;;;;;;16.21;57.42;97427.75;4999559;28;20383;-81
2021/10/06 11:12:24;;;;;;;4.25;1.50;;;;;;;16.28;58.16;97418.53;4971210;28;20038;-82
2021/10/06 11:15:05;;;;;;;9.80;2.10;;;;;;;16.08;59.18;97418.69;4995546;28;20126;-81
2021/10/06 11:17:30;;;;;;;5.22;1.42;;;;;;;16.38;57.47;97412.41;4987245;28;20046;-81
2021/10/06 11:19:56;;;;;;;4.05;1.95;;;;;;;16.33;58.28;97419.53;4995377;28;20041;-81
2021/10/06 11:22:24;;;;;;;2.95;1.25;;;;;;;16.09;58.69;97417.59;4957858;28;20034;-81
2021/10/06 11:24:59;;;;;;;3.55;1.55;;;;;;;16.00;59.02;97425.28;5006491;28;20180;-82
2021/10/06 11:27:26;;;;;;;4.70;1.45;;;;;;;15.80;60.25;97433.28;4990710;28;20493;-81
2021/10/06 11:29:53;;;;;;;6.20;1.77;;;;;;;15.40;61.06;97446.31;4989012;28;20424;-81
2021/10/06 11:32:19;;;;;;;3.85;2.05;;;;;;;15.13;62.61;97442.22;5002726;28;20034;-82